Dirj, Libya
Current Conditions -  °F | °C
As of 9:00 PM on Saturday 20 Dec 2014 (Local Time) from DAUZ Reporting Station
Clear Clear  
Wind Chill: 57°   Ceiling: Unl
Heat Index: 57°   Visibility: 6mi
Dew Point: 32°   Wind: 6mph
Humidity: 38%   Direction: 90°E
Pressure: 30.33"   Gusts: NA
Location:  30.17°N, 10.46°E
Report Text: DAUZ 201800Z 09005KT CAVOK 14/00 Q1027
Loading
Personal Weather Stations






























Interactive Weather Map New forecast layout! Learn more

10-Day Weather Forecast

Advertisements
Track Severe Weather on mobile